首页
METAR-TAF:

METAR-TAF

机场 :

Meeker Airport

Meeker, 科羅拉多州, 美国

纬度: 40-02-32N, 经度: 107-53-23W, 海拔: 1948米

当前天气观测

该预报发布于23分钟前的16:41 UTC
风速5节,风向北转西北
温度 -1°C
湿度 93%
气压 1020 hPa
能見度: 0.4公里
雪, 冻雾

METAR: KEEO 131641Z AUTO 33005KT 1/4SM SN FZFG VV006 M01/M02 A3012 RMK AO2 P0016 T10111022

时间: 10:04 (17:04 UTC)


TAF: 丢失

超过4000个机场的气象观测和天气预报(METAR&TAF报告)。

可查询的气象台以黄色和红色小点在地图上表示。

将鼠标移到小点上方,可查看气象台名称。

然后点击查看天气观测和预报。

如需切换地图:点击带黑十字的绿色按钮放大地图;点击带横线的绿色按钮缩小地图;或者点击绿色箭头查看邻近地区的地图。


METAR-TAF: